createdAt,value
2018-02-11T00:00:35.298Z,9.98
2018-02-11T00:03:04.178Z,9.40
2018-02-11T00:05:33.067Z,10.00
2018-02-11T00:08:01.244Z,10.32
2018-02-11T00:10:29.390Z,9.55
2018-02-11T00:12:57.565Z,10.20
2018-02-11T00:15:25.703Z,9.80
2018-02-11T00:17:54.674Z,9.68
2018-02-11T00:20:26.187Z,9.70
2018-02-11T00:22:54.341Z,10.88
2018-02-11T00:25:22.625Z,9.40
2018-02-11T00:27:50.837Z,10.57
2018-02-11T00:30:18.997Z,10.50
2018-02-11T00:32:47.902Z,10.52
2018-02-11T00:35:16.072Z,10.32
2018-02-11T00:37:50.489Z,8.63
2018-02-11T00:40:19.386Z,10.20
2018-02-11T00:42:48.278Z,9.32
2018-02-11T00:45:16.437Z,10.52
2018-02-11T00:47:45.347Z,10.20
2018-02-11T00:50:14.232Z,9.18
2018-02-11T00:52:43.111Z,9.57
2018-02-11T00:55:11.994Z,10.05
2018-02-11T00:57:40.982Z,9.40
2018-02-11T01:00:09.878Z,11.00
2018-02-11T01:02:39.011Z,10.30
2018-02-11T01:05:07.143Z,10.25
2018-02-11T01:07:36.039Z,10.15
2018-02-11T01:10:04.963Z,9.93
2018-02-11T01:12:33.088Z,9.50
2018-02-11T01:15:01.295Z,7.85
2018-02-11T01:17:29.421Z,9.50
2018-02-11T01:19:57.569Z,8.63
2018-02-11T01:22:25.711Z,9.20
2018-02-11T01:24:53.858Z,9.55
2018-02-11T01:27:22.779Z,9.33
2018-02-11T01:29:51.644Z,9.93
2018-02-11T01:32:20.665Z,10.00
2018-02-11T01:34:48.782Z,9.57
2018-02-11T01:37:16.925Z,9.43
2018-02-11T01:39:45.056Z,9.55
2018-02-11T01:42:13.971Z,9.33
2018-02-11T01:44:42.117Z,8.63
2018-02-11T01:47:11.005Z,9.75
2018-02-11T01:49:39.933Z,9.35
2018-02-11T01:52:08.040Z,9.00
2018-02-11T01:54:36.171Z,9.10
2018-02-11T01:57:04.301Z,9.88
2018-02-11T01:59:33.212Z,8.77
2018-02-11T02:02:02.095Z,9.20
2018-02-11T02:04:30.997Z,8.45
2018-02-11T02:06:59.152Z,8.93
2018-02-11T02:09:28.056Z,8.82
2018-02-11T02:11:57.043Z,7.97
2018-02-11T02:14:25.926Z,8.15
2018-02-11T02:16:54.840Z,8.52
2018-02-11T02:19:22.969Z,8.48
2018-02-11T02:21:51.118Z,7.90
2018-02-11T02:24:19.242Z,8.25
2018-02-11T02:26:47.379Z,7.95
2018-02-11T02:29:15.506Z,7.90
2018-02-11T02:31:43.657Z,8.43
2018-02-11T02:34:12.554Z,9.00
2018-02-11T02:36:40.689Z,8.48
2018-02-11T02:39:08.806Z,9.07
2018-02-11T02:41:36.946Z,8.48
2018-02-11T02:44:05.108Z,10.03
2018-02-11T02:46:33.225Z,8.93
2018-02-11T02:49:01.384Z,9.73
2018-02-11T02:51:30.276Z,8.65
2018-02-11T02:53:58.446Z,9.20
2018-02-11T02:56:26.590Z,8.20
2018-02-11T02:58:54.714Z,8.07
2018-02-11T03:01:22.970Z,8.50
2018-02-11T03:03:51.103Z,8.00
2018-02-11T03:06:19.250Z,8.88
2018-02-11T03:08:47.490Z,9.30
2018-02-11T03:11:16.419Z,9.05
2018-02-11T03:13:44.544Z,8.40
2018-02-11T03:16:12.674Z,8.45
2018-02-11T03:18:40.814Z,7.62
2018-02-11T03:21:08.950Z,7.45
2018-02-11T03:23:37.850Z,7.80
2018-02-11T03:26:06.009Z,8.77
2018-02-11T03:28:34.915Z,9.10
2018-02-11T03:31:03.039Z,8.45
2018-02-11T03:33:31.198Z,7.57
2018-02-11T03:35:59.331Z,8.85
2018-02-11T03:38:28.222Z,8.57
2018-02-11T03:40:56.386Z,8.75
2018-02-11T03:43:25.289Z,8.20
2018-02-11T03:45:53.461Z,8.52
2018-02-11T03:48:21.589Z,8.02
2018-02-11T03:50:49.991Z,8.05
2018-02-11T03:53:18.186Z,7.70
2018-02-11T03:55:46.649Z,7.55
2018-02-11T03:58:14.777Z,7.90
2018-02-11T04:00:42.889Z,7.57
2018-02-11T04:03:11.798Z,7.82
2018-02-11T04:05:40.686Z,7.53
2018-02-11T04:08:08.831Z,8.57
2018-02-11T04:10:37.753Z,8.38
2018-02-11T04:13:05.887Z,7.40
2018-02-11T04:15:34.075Z,7.85
2018-02-11T04:18:02.967Z,8.15
2018-02-11T04:20:31.874Z,8.07
2018-02-11T04:23:00.031Z,7.80
2018-02-11T04:25:28.942Z,7.35
2018-02-11T04:27:57.098Z,7.53
2018-02-11T04:30:26.010Z,7.28
2018-02-11T04:32:54.125Z,8.27
2018-02-11T04:35:22.333Z,8.05
2018-02-11T04:37:50.476Z,6.55
2018-02-11T04:40:18.602Z,7.40
2018-02-11T04:42:46.781Z,7.50
2018-02-11T04:45:14.919Z,7.85
2018-02-11T04:47:43.836Z,8.80
2018-02-11T04:50:11.969Z,7.55
2018-02-11T04:52:40.139Z,7.47
2018-02-11T04:55:08.258Z,7.50
2018-02-11T04:57:36.401Z,7.03
2018-02-11T05:00:05.315Z,6.82
2018-02-11T05:02:33.461Z,6.50
2018-02-11T05:05:02.383Z,7.62
2018-02-11T05:07:30.521Z,7.40
2018-02-11T05:09:59.437Z,7.20
2018-02-11T05:12:27.564Z,7.70
2018-02-11T05:14:57.226Z,6.22
2018-02-11T05:17:25.383Z,6.37
2018-02-11T05:19:54.289Z,7.32
2018-02-11T05:22:22.418Z,7.45
2018-02-11T05:24:51.324Z,6.75
2018-02-11T05:27:20.240Z,7.17
2018-02-11T05:29:48.364Z,6.65
2018-02-11T05:32:16.486Z,7.05
2018-02-11T05:34:44.631Z,7.32
2018-02-11T05:37:12.786Z,7.05
2018-02-11T05:39:41.702Z,6.50
2018-02-11T05:42:10.717Z,6.80
2018-02-11T05:44:38.836Z,5.78
2018-02-11T05:47:06.966Z,7.50
2018-02-11T05:49:35.093Z,7.00
2018-02-11T05:52:04.019Z,5.87
2018-02-11T05:54:32.144Z,6.20
2018-02-11T05:57:00.271Z,6.40
2018-02-11T05:59:28.403Z,6.15
2018-02-11T06:01:57.326Z,6.05
2018-02-11T06:04:25.445Z,6.05
2018-02-11T06:06:53.583Z,6.20
2018-02-11T06:09:21.726Z,7.00
2018-02-11T06:11:50.635Z,7.30
2018-02-11T06:14:18.756Z,6.43
2018-02-11T06:16:46.874Z,7.05
2018-02-11T06:19:15.017Z,5.45
2018-02-11T06:21:43.906Z,6.72
2018-02-11T06:24:12.905Z,6.90
2018-02-11T06:26:42.604Z,7.20
2018-02-11T06:29:10.790Z,6.20
2018-02-11T06:31:39.777Z,6.50
2018-02-11T06:34:08.770Z,6.43
2018-02-11T06:36:37.712Z,7.40
2018-02-11T06:39:05.818Z,6.68
2018-02-11T06:41:33.976Z,7.25
2018-02-11T06:44:02.116Z,7.20
2018-02-11T06:46:30.259Z,6.45
2018-02-11T06:49:00.021Z,8.20
2018-02-11T06:51:28.150Z,6.20
2018-02-11T06:53:56.259Z,6.70
2018-02-11T06:56:24.383Z,5.75
2018-02-11T06:58:52.548Z,7.28
2018-02-11T07:01:21.426Z,7.82
2018-02-11T07:03:50.332Z,7.47
2018-02-11T07:06:19.222Z,6.85
2018-02-11T07:08:48.149Z,6.35
2018-02-11T07:11:16.267Z,7.15
2018-02-11T07:13:45.172Z,7.32
2018-02-11T07:16:13.320Z,7.05
2018-02-11T07:18:41.453Z,6.93
2018-02-11T07:21:09.590Z,6.43
2018-02-11T07:23:38.483Z,8.90
2018-02-11T07:26:07.407Z,6.70
2018-02-11T07:28:35.528Z,7.50
2018-02-11T07:31:03.666Z,8.50
2018-02-11T07:33:31.790Z,9.52
2018-02-11T07:36:00.678Z,8.65
2018-02-11T07:38:29.581Z,8.63
2018-02-11T07:40:57.718Z,7.05
2018-02-11T07:43:25.852Z,6.90
2018-02-11T07:45:53.957Z,7.10
2018-02-11T07:48:23.598Z,8.70
2018-02-11T07:50:51.723Z,8.20
2018-02-11T07:53:19.847Z,8.30
2018-02-11T07:55:47.978Z,8.63
2018-02-11T07:58:16.119Z,9.77
2018-02-11T08:00:44.248Z,8.13
2018-02-11T08:03:13.131Z,8.23
2018-02-11T08:05:42.033Z,8.07
2018-02-11T08:08:10.929Z,8.48
2018-02-11T08:10:39.078Z,10.57
2018-02-11T08:13:07.974Z,9.03
2018-02-11T08:15:36.890Z,8.45
2018-02-11T08:18:05.038Z,9.13
2018-02-11T08:20:33.996Z,9.05
2018-02-11T08:23:02.152Z,9.45
2018-02-11T08:25:30.275Z,9.80
2018-02-11T08:27:59.250Z,8.97
2018-02-11T08:30:27.348Z,9.00
2018-02-11T08:32:55.472Z,9.63
2018-02-11T08:35:23.710Z,11.68
2018-02-11T08:37:51.850Z,11.27
2018-02-11T08:40:19.981Z,10.80
2018-02-11T08:42:48.132Z,9.47
2018-02-11T08:45:16.318Z,9.23
2018-02-11T08:47:44.463Z,9.60
2018-02-11T08:50:12.575Z,8.60
2018-02-11T08:52:41.527Z,8.93
2018-02-11T08:55:10.405Z,9.40
2018-02-11T08:57:38.557Z,9.75
2018-02-11T09:00:07.516Z,9.75
2018-02-11T09:02:35.688Z,9.18
2018-02-11T09:05:03.797Z,10.10
2018-02-11T09:07:31.940Z,9.00
2018-02-11T09:10:00.117Z,9.98
2018-02-11T09:12:28.230Z,12.50
2018-02-11T09:14:57.164Z,10.82
2018-02-11T09:17:25.285Z,11.30
2018-02-11T09:19:54.191Z,11.80
2018-02-11T09:22:22.372Z,10.05
2018-02-11T09:24:50.497Z,11.07
2018-02-11T09:27:18.637Z,9.43
2018-02-11T09:29:46.765Z,9.68
2018-02-11T09:32:15.791Z,12.93
2018-02-11T09:34:44.678Z,11.50
2018-02-11T09:37:12.827Z,12.30
2018-02-11T09:39:41.794Z,9.85
2018-02-11T09:42:09.924Z,12.00
2018-02-11T09:44:38.064Z,11.70
2018-02-11T09:47:06.956Z,11.75
2018-02-11T09:49:35.111Z,10.10
2018-02-11T09:52:03.253Z,12.50
2018-02-11T09:54:31.370Z,10.43
2018-02-11T09:57:00.298Z,13.25
2018-02-11T09:59:28.434Z,10.65
2018-02-11T10:01:57.376Z,9.80
2018-02-11T10:04:25.507Z,11.18
2018-02-11T10:06:53.669Z,12.10
2018-02-11T10:09:22.590Z,11.25
2018-02-11T10:11:50.733Z,12.30
2018-02-11T10:14:19.648Z,10.48
2018-02-11T10:16:47.801Z,9.88
2018-02-11T10:19:15.971Z,10.52
2018-02-11T10:21:44.111Z,9.70
2018-02-11T10:24:12.268Z,11.88
2018-02-11T10:26:40.398Z,10.25
2018-02-11T10:29:08.541Z,10.10
2018-02-11T10:31:37.489Z,10.80
2018-02-11T10:34:05.623Z,10.50
2018-02-11T10:36:34.527Z,12.15
2018-02-11T10:39:02.674Z,9.68
2018-02-11T10:41:30.782Z,9.30
2018-02-11T10:43:58.938Z,8.98
2018-02-11T10:46:27.847Z,9.82
2018-02-11T10:48:56.015Z,9.10
2018-02-11T10:51:24.219Z,10.52
2018-02-11T10:53:54.086Z,10.05
2018-02-11T10:56:22.229Z,10.10
2018-02-11T10:58:50.351Z,8.90
2018-02-11T11:01:18.492Z,8.90
2018-02-11T11:03:47.382Z,8.65
2018-02-11T11:06:16.299Z,9.00
2018-02-11T11:08:44.431Z,8.18
2018-02-11T11:11:12.580Z,9.05
2018-02-11T11:13:40.702Z,7.90
2018-02-11T11:16:08.863Z,8.95
2018-02-11T11:18:37.768Z,8.38
2018-02-11T11:21:05.919Z,7.47
2018-02-11T11:23:34.036Z,7.25
2018-02-11T11:26:02.513Z,8.70
2018-02-11T11:28:30.647Z,8.00
2018-02-11T11:30:59.585Z,8.40
2018-02-11T11:33:27.748Z,8.25
2018-02-11T11:35:55.877Z,8.40
2018-02-11T11:38:24.809Z,8.23
2018-02-11T11:40:52.930Z,8.25
2018-02-11T11:43:21.045Z,7.32
2018-02-11T11:45:49.196Z,7.18
2018-02-11T11:48:18.813Z,10.05
2018-02-11T11:50:46.973Z,7.95
2018-02-11T11:53:16.033Z,7.85
2018-02-11T11:55:44.181Z,8.60
2018-02-11T11:58:12.319Z,8.20
2018-02-11T12:00:40.457Z,8.27
2018-02-11T12:03:08.642Z,7.78
2018-02-11T12:05:36.771Z,7.55
2018-02-11T12:08:04.908Z,7.43
2018-02-11T12:10:33.312Z,8.40
2018-02-11T12:13:01.470Z,8.27
2018-02-11T12:15:30.541Z,8.32
2018-02-11T12:17:59.419Z,7.85
2018-02-11T12:20:27.591Z,8.83
2018-02-11T12:22:55.694Z,10.77
2018-02-11T12:25:24.889Z,8.15
2018-02-11T12:27:53.772Z,9.20
2018-02-11T12:30:22.846Z,9.55
2018-02-11T12:32:51.017Z,8.60
2018-02-11T12:35:19.970Z,8.45
2018-02-11T12:37:48.178Z,8.32
2018-02-11T12:40:16.318Z,7.37
2018-02-11T12:42:44.454Z,8.43
2018-02-11T12:45:13.515Z,7.93
2018-02-11T12:47:41.673Z,7.72
2018-02-11T12:50:09.799Z,8.45
2018-02-11T12:52:38.686Z,9.10
2018-02-11T12:55:06.826Z,7.80
2018-02-11T12:57:34.977Z,8.10
2018-02-11T13:00:03.600Z,7.87
2018-02-11T13:02:32.501Z,7.43
2018-02-11T13:05:01.390Z,7.18
2018-02-11T13:07:30.542Z,6.90
2018-02-11T13:09:58.702Z,6.75
2018-02-11T13:12:26.929Z,8.43
2018-02-11T13:14:55.078Z,7.97
2018-02-11T13:17:23.970Z,7.10
2018-02-11T13:19:52.854Z,8.07
2018-02-11T13:22:21.029Z,9.38
2018-02-11T13:24:49.915Z,7.93
2018-02-11T13:27:18.062Z,8.90
2018-02-11T13:29:46.177Z,7.10
2018-02-11T13:32:15.091Z,8.85
2018-02-11T13:34:43.228Z,8.05
2018-02-11T13:37:12.136Z,9.02
2018-02-11T13:39:41.039Z,7.43
2018-02-11T13:42:09.179Z,8.70
2018-02-11T13:44:37.303Z,7.32
2018-02-11T13:47:05.427Z,8.20
2018-02-11T13:49:34.403Z,5.95
2018-02-11T13:52:02.564Z,8.20
2018-02-11T13:54:30.686Z,8.00
2018-02-11T13:56:59.004Z,8.35
2018-02-11T13:59:27.123Z,7.03
2018-02-11T14:01:56.055Z,9.30
2018-02-11T14:04:24.714Z,6.90
2018-02-11T14:06:52.825Z,8.50
2018-02-11T14:09:20.967Z,7.80
2018-02-11T14:11:49.138Z,8.68
2018-02-11T14:14:17.253Z,7.63
2018-02-11T14:16:45.428Z,9.10
2018-02-11T14:19:13.596Z,7.75
2018-02-11T14:21:41.774Z,7.65
2018-02-11T14:24:09.894Z,6.45
2018-02-11T14:26:38.765Z,8.27
2018-02-11T14:29:07.676Z,7.70
2018-02-11T14:31:35.849Z,8.93
2018-02-11T14:34:03.973Z,7.70
2018-02-11T14:36:32.125Z,8.25
2018-02-11T14:39:01.054Z,7.75
2018-02-11T14:41:30.007Z,8.35
2018-02-11T14:43:58.158Z,6.90
2018-02-11T14:46:26.282Z,8.23
2018-02-11T14:48:55.225Z,7.18
2018-02-11T14:51:23.416Z,8.50
2018-02-11T14:53:51.563Z,7.78
2018-02-11T14:56:19.698Z,9.00
2018-02-11T14:58:48.771Z,13.07
2018-02-11T15:01:17.001Z,9.57
2018-02-11T15:03:45.129Z,7.30
2018-02-11T15:06:13.298Z,10.50
2018-02-11T15:08:41.427Z,8.55
2018-02-11T15:11:09.590Z,9.90
2018-02-11T15:13:37.774Z,7.10
2018-02-11T15:16:05.920Z,9.57
2018-02-11T15:18:35.242Z,8.05
2018-02-11T15:21:04.296Z,8.00
2018-02-11T15:23:33.236Z,10.98
2018-02-11T15:26:01.400Z,11.12
2018-02-11T15:28:29.539Z,10.25
2018-02-11T15:30:58.452Z,8.00
2018-02-11T15:33:28.264Z,9.75
2018-02-11T15:35:56.597Z,8.35
2018-02-11T15:38:24.843Z,8.07
2018-02-11T15:40:53.050Z,10.60
2018-02-11T15:43:21.202Z,9.37
2018-02-11T15:45:49.349Z,10.10
2018-02-11T15:48:17.498Z,9.32
2018-02-11T15:50:45.994Z,8.60
2018-02-11T15:53:14.146Z,7.95
2018-02-11T15:55:43.060Z,9.88
2018-02-11T15:58:11.237Z,10.10
2018-02-11T16:00:39.361Z,10.33
2018-02-11T16:03:07.529Z,10.10
2018-02-11T16:05:35.911Z,8.90
2018-02-11T16:08:04.055Z,7.70
2018-02-11T16:10:32.170Z,7.00
2018-02-11T16:13:00.342Z,8.83
2018-02-11T16:15:28.511Z,7.45
2018-02-11T16:17:57.856Z,6.60
2018-02-11T16:20:25.996Z,6.97
2018-02-11T16:22:54.130Z,8.10
2018-02-11T16:25:22.474Z,8.65
2018-02-11T16:27:50.653Z,7.65
2018-02-11T16:30:18.799Z,6.57
2018-02-11T16:32:47.154Z,11.05
2018-02-11T16:35:16.059Z,7.20
2018-02-11T16:37:44.242Z,7.60
2018-02-11T16:40:12.326Z,5.97
2018-02-11T16:42:40.481Z,7.83
2018-02-11T16:45:10.675Z,8.00
2018-02-11T16:47:39.634Z,6.32
2018-02-11T16:50:07.754Z,6.37
2018-02-11T16:52:36.855Z,7.05
2018-02-11T16:55:05.801Z,7.47
2018-02-11T16:57:33.951Z,4.80
2018-02-11T17:00:02.101Z,7.10
2018-02-11T17:02:30.304Z,7.90
2018-02-11T17:04:58.667Z,6.10
2018-02-11T17:07:26.919Z,7.72
2018-02-11T17:09:55.053Z,9.35
2018-02-11T17:12:23.206Z,8.53
2018-02-11T17:14:51.357Z,6.53
2018-02-11T17:17:19.494Z,8.55
2018-02-11T17:19:48.878Z,6.65
2018-02-11T17:22:17.094Z,7.07
2018-02-11T17:24:45.241Z,7.20
2018-02-11T17:27:14.212Z,7.87
2018-02-11T17:29:42.367Z,6.32
2018-02-11T17:32:10.529Z,7.05
2018-02-11T17:34:38.812Z,11.55
2018-02-11T17:37:07.053Z,6.63
2018-02-11T17:39:35.937Z,6.07
2018-02-11T17:42:04.070Z,6.63
2018-02-11T17:44:32.197Z,5.82
2018-02-11T17:47:00.322Z,6.33
2018-02-11T17:49:28.507Z,6.22
2018-02-11T17:51:57.456Z,5.55
2018-02-11T17:54:25.565Z,4.60
2018-02-11T17:56:54.816Z,5.45
2018-02-11T17:59:23.679Z,4.30
2018-02-11T18:01:51.830Z,5.50
2018-02-11T18:04:20.956Z,3.75
2018-02-11T18:06:49.482Z,5.80
2018-02-11T18:09:17.912Z,5.43
2018-02-11T18:11:46.167Z,6.05
2018-02-11T18:14:15.067Z,11.87
2018-02-11T18:16:43.959Z,8.77
2018-02-11T18:19:12.109Z,7.97
2018-02-11T18:21:41.134Z,9.07
2018-02-11T18:24:09.285Z,10.23
2018-02-11T18:26:37.475Z,6.95
2018-02-11T18:29:06.372Z,7.50
2018-02-11T18:31:34.507Z,7.87
2018-02-11T18:34:03.445Z,7.00
2018-02-11T18:36:31.591Z,7.55
2018-02-11T18:38:59.889Z,7.70
2018-02-11T18:41:28.173Z,8.48
2018-02-11T18:43:56.354Z,7.60
2018-02-11T18:46:24.541Z,10.73
2018-02-11T18:48:52.681Z,7.65
2018-02-11T18:51:21.671Z,6.10
2018-02-11T18:53:49.824Z,5.95
2018-02-11T18:56:18.796Z,7.00
2018-02-11T18:58:47.746Z,7.57
2018-02-11T19:01:15.901Z,7.13
2018-02-11T19:03:44.092Z,9.05
2018-02-11T19:06:12.263Z,9.23
2018-02-11T19:08:40.394Z,7.50
2018-02-11T19:11:09.366Z,8.35
2018-02-11T19:13:37.524Z,6.63
2018-02-11T19:16:05.672Z,8.30
2018-02-11T19:18:33.966Z,9.75
2018-02-11T19:21:02.134Z,8.57
2018-02-11T19:23:30.283Z,6.12
2018-02-11T19:25:58.441Z,6.35
2018-02-11T19:28:26.575Z,7.00
2018-02-11T19:30:55.187Z,7.40
2018-02-11T19:33:23.703Z,11.35
2018-02-11T19:35:51.857Z,7.93
2018-02-11T19:38:20.012Z,7.57
2018-02-11T19:40:48.181Z,6.70
2018-02-11T19:43:16.333Z,7.40
2018-02-11T19:45:45.272Z,8.32
2018-02-11T19:48:13.403Z,8.07
2018-02-11T19:50:42.359Z,8.73
2018-02-11T19:53:10.533Z,8.68
2018-02-11T19:55:38.715Z,7.47
2018-02-11T19:58:07.623Z,8.20
2018-02-11T20:00:36.709Z,9.55
2018-02-11T20:03:04.959Z,9.38
2018-02-11T20:05:33.114Z,8.70
2018-02-11T20:08:01.285Z,9.02
2018-02-11T20:10:29.458Z,8.68
2018-02-11T20:12:57.663Z,9.07
2018-02-11T20:15:25.825Z,10.82
2018-02-11T20:17:54.013Z,8.75
2018-02-11T20:20:22.160Z,9.32
2018-02-11T20:22:50.402Z,11.27
2018-02-11T20:25:18.594Z,8.70
2018-02-11T20:27:47.179Z,8.80
2018-02-11T20:30:15.385Z,8.82
2018-02-11T20:32:43.586Z,8.45
2018-02-11T20:35:11.758Z,7.72
2018-02-11T20:37:40.158Z,7.50
2018-02-11T20:40:09.151Z,7.07
2018-02-11T20:42:38.229Z,6.80
2018-02-11T20:45:07.125Z,9.10
2018-02-11T20:47:36.076Z,7.60
2018-02-11T20:50:04.277Z,9.93
2018-02-11T20:52:32.571Z,8.35
2018-02-11T20:55:01.528Z,7.97
2018-02-11T20:57:29.819Z,8.10
2018-02-11T20:59:57.967Z,7.60
2018-02-11T21:02:26.135Z,9.57
2018-02-11T21:04:54.318Z,9.57
2018-02-11T21:07:22.547Z,9.85
2018-02-11T21:09:50.847Z,8.10
2018-02-11T21:12:19.033Z,7.53
2018-02-11T21:14:47.237Z,5.80
2018-02-11T21:17:16.186Z,6.32
2018-02-11T21:19:44.333Z,6.28
2018-02-11T21:22:12.748Z,5.12
2018-02-11T21:24:40.883Z,6.20
2018-02-11T21:27:09.032Z,6.47
2018-02-11T21:29:37.233Z,6.60
2018-02-11T21:32:05.387Z,6.05
2018-02-11T21:34:33.532Z,5.60
2018-02-11T21:37:03.498Z,5.90
2018-02-11T21:39:31.865Z,6.05
2018-02-11T21:42:00.046Z,5.60
2018-02-11T21:44:28.934Z,6.12
2018-02-11T21:46:57.045Z,6.18
2018-02-11T21:49:27.395Z,6.00
2018-02-11T21:51:55.522Z,5.57
2018-02-11T21:54:23.633Z,5.93
2018-02-11T21:56:52.647Z,5.25
2018-02-11T21:59:21.526Z,4.50
2018-02-11T22:01:50.441Z,3.80
2018-02-11T22:04:18.570Z,3.35
2018-02-11T22:06:46.711Z,2.97
2018-02-11T22:09:14.938Z,2.70
2018-02-11T22:11:43.824Z,2.08
2018-02-11T22:14:12.732Z,2.00
2018-02-11T22:16:40.850Z,2.20
2018-02-11T22:19:08.992Z,1.67
2018-02-11T22:21:37.306Z,3.15
2018-02-11T22:24:05.526Z,3.03
2018-02-11T22:26:34.528Z,3.05
2018-02-11T22:29:02.707Z,2.90
2018-02-11T22:31:30.830Z,2.90
2018-02-11T22:33:58.965Z,4.37
2018-02-11T22:36:27.110Z,5.50
2018-02-11T22:38:55.398Z,5.47
2018-02-11T22:41:23.754Z,6.00
2018-02-11T22:43:51.926Z,7.93
2018-02-11T22:46:20.048Z,8.88
2018-02-11T22:48:48.201Z,4.97
2018-02-11T22:51:16.565Z,4.78
2018-02-11T22:53:44.769Z,6.40
2018-02-11T22:56:12.858Z,5.12
2018-02-11T22:58:40.985Z,4.10
2018-02-11T23:01:09.122Z,4.62
2018-02-11T23:03:38.129Z,4.15
2018-02-11T23:06:07.043Z,4.50
2018-02-11T23:08:35.180Z,4.80
2018-02-11T23:11:03.303Z,4.78
2018-02-11T23:13:31.659Z,5.73
2018-02-11T23:15:59.816Z,6.50
2018-02-11T23:18:27.970Z,6.80
2018-02-11T23:20:56.846Z,6.35
2018-02-11T23:23:24.973Z,6.65
2018-02-11T23:25:53.118Z,7.03
2018-02-11T23:28:21.262Z,7.13
2018-02-11T23:30:49.409Z,5.80
2018-02-11T23:33:18.097Z,4.68
2018-02-11T23:35:46.253Z,5.15
2018-02-11T23:38:14.410Z,6.40
2018-02-11T23:40:42.542Z,6.35
2018-02-11T23:43:10.772Z,6.30
2018-02-11T23:45:38.904Z,5.97
2018-02-11T23:48:07.009Z,6.80
2018-02-11T23:50:35.167Z,4.93
2018-02-11T23:53:03.312Z,4.97
2018-02-11T23:55:31.506Z,4.43
2018-02-11T23:57:59.611Z,4.70
